GGG weather

East Texas Regional Airport
Longview, Texas, United States

Public forecast

Using degrees Fahrenheit for public forecast. Weather courtesy of forecast.io.

METAR (pilot weather report)

Retrieved 2019/06/17 00:18 UTC (0 seconds ago):

KGGG 170018Z 26010KT 10SM -RA FEW018 BKN070 OVC100 22/19 A2996 RMK AO2 PK WND 29027/0002 WSHFT 2358 LTG DSNT SW-NW RAB00 P0000 T02170189

TAF (pilot weather forecast)

Forecast is more than 12 hours old.

Retrieved 2019/06/16 00:46 UTC (23 hours ago):

TAF KGGG 162344Z 1700/1724 30010G20KT 3SM TSRA SCT015 BKN025CB FM170100 08013KT 5SM -TSRA SCT020 BKN040CB FM170230 14006KT 6SM BR VCSH SCT020 BKN040 FM170800 18005KT 6SM BR VCSH BKN019 OVC040 FM171600 22010KT P6SM VCTS SCT020 BKN040CB